sensor_id;sensor_type;location;lat;lon;timestamp;pressure;altitude;pressure_sealevel;temperature;humidity
73332;BME280;61560;33.718;73.040;2022-09-09T00:00:15;94509.47;;;28.80;68.43
73332;BME280;61560;33.718;73.040;2022-09-09T00:06:02;94512.38;;;28.74;69.18
73332;BME280;61560;33.718;73.040;2022-09-09T00:08:53;94511.63;;;28.74;68.62
73332;BME280;61560;33.718;73.040;2022-09-09T00:11:42;94521.16;;;28.71;69.21
73332;BME280;61560;33.718;73.040;2022-09-09T00:14:29;94511.50;;;28.66;68.70
73332;BME280;61560;33.718;73.040;2022-09-09T00:17:12;94524.94;;;28.60;69.24
73332;BME280;61560;33.718;73.040;2022-09-09T00:20:35;94523.72;;;28.56;69.36
73332;BME280;61560;33.718;73.040;2022-09-09T00:22:36;94520.09;;;28.55;69.27
73332;BME280;61560;33.718;73.040;2022-09-09T00:25:16;94520.97;;;28.50;69.19
73332;BME280;61560;33.718;73.040;2022-09-09T00:27:48;94539.94;;;28.50;69.93
73332;BME280;61560;33.718;73.040;2022-09-09T00:30:22;94532.78;;;28.49;69.57
73332;BME280;61560;33.718;73.040;2022-09-09T00:32:59;94533.00;;;28.51;69.34
73332;BME280;61560;33.718;73.040;2022-09-09T00:35:42;94540.69;;;28.50;69.85
73332;BME280;61560;33.718;73.040;2022-09-09T00:38:34;94544.56;;;28.47;69.89
73332;BME280;61560;33.718;73.040;2022-09-09T00:41:22;94551.19;;;28.50;69.77
73332;BME280;61560;33.718;73.040;2022-09-09T00:55:50;94560.19;;;28.48;70.28
73332;BME280;61560;33.718;73.040;2022-09-09T00:58:20;94563.34;;;28.45;70.39
73332;BME280;61560;33.718;73.040;2022-09-09T01:00:51;94564.94;;;28.40;70.34
73332;BME280;61560;33.718;73.040;2022-09-09T01:03:38;94573.84;;;28.44;70.10
73332;BME280;61560;33.718;73.040;2022-09-09T01:06:23;94582.50;;;28.46;70.53
73332;BME280;61560;33.718;73.040;2022-09-09T01:09:21;94581.66;;;28.51;70.26
73332;BME280;61560;33.718;73.040;2022-09-09T01:12:07;94588.22;;;28.59;70.39
73332;BME280;61560;33.718;73.040;2022-09-09T01:17:19;94600.94;;;28.66;69.61
73332;BME280;61560;33.718;73.040;2022-09-09T01:23:53;94601.59;;;28.72;70.08
73332;BME280;61560;33.718;73.040;2022-09-09T01:26:43;94604.34;;;28.77;69.56
73332;BME280;61560;33.718;73.040;2022-09-09T01:29:21;94605.38;;;28.93;69.60
73332;BME280;61560;33.718;73.040;2022-09-09T01:32:39;94616.25;;;29.02;68.90
73332;BME280;61560;33.718;73.040;2022-09-09T01:38:01;94615.13;;;29.24;68.35
73332;BME280;61560;33.718;73.040;2022-09-09T01:40:27;94615.06;;;29.55;67.61
73332;BME280;61560;33.718;73.040;2022-09-09T01:42:56;94621.25;;;29.93;66.55
73332;BME280;61560;33.718;73.040;2022-09-09T01:45:24;94617.44;;;30.17;65.67
73332;BME280;61560;33.718;73.040;2022-09-09T01:47:52;94626.66;;;30.43;65.13
73332;BME280;61560;33.718;73.040;2022-09-09T01:50:27;94629.75;;;30.53;64.67
73332;BME280;61560;33.718;73.040;2022-09-09T01:53:00;94633.53;;;30.68;64.14
73332;BME280;61560;33.718;73.040;2022-09-09T01:55:37;94631.13;;;30.73;64.47
73332;BME280;61560;33.718;73.040;2022-09-09T02:03:59;94621.63;;;31.04;63.45
73332;BME280;61560;33.718;73.040;2022-09-09T02:06:38;94630.94;;;31.32;62.54
73332;BME280;61560;33.718;73.040;2022-09-09T02:09:26;94637.97;;;31.60;61.37
73332;BME280;61560;33.718;73.040;2022-09-09T02:12:10;94634.31;;;31.72;61.25
73332;BME280;61560;33.718;73.040;2022-09-09T02:14:52;94644.25;;;31.66;61.39
73332;BME280;61560;33.718;73.040;2022-09-09T02:17:29;94644.06;;;31.64;62.12
73332;BME280;61560;33.718;73.040;2022-09-09T02:20:09;94639.19;;;31.72;61.74
73332;BME280;61560;33.718;73.040;2022-09-09T02:22:56;94646.44;;;31.80;61.42
73332;BME280;61560;33.718;73.040;2022-09-09T02:25:26;94644.34;;;31.73;61.70
73332;BME280;61560;33.718;73.040;2022-09-09T02:28:04;94646.59;;;31.75;61.50
73332;BME280;61560;33.718;73.040;2022-09-09T02:30:36;94645.84;;;31.74;62.19
73332;BME280;61560;33.718;73.040;2022-09-09T02:33:07;94650.44;;;31.85;61.96
73332;BME280;61560;33.718;73.040;2022-09-09T02:35:49;94654.34;;;31.74;61.05
73332;BME280;61560;33.718;73.040;2022-09-09T02:38:21;94645.06;;;31.74;61.23
73332;BME280;61560;33.718;73.040;2022-09-09T02:41:01;94648.78;;;31.89;60.76
73332;BME280;61560;33.718;73.040;2022-09-09T02:43:33;94650.25;;;31.83;60.02
73332;BME280;61560;33.718;73.040;2022-09-09T02:46:19;94646.38;;;31.93;59.63
73332;BME280;61560;33.718;73.040;2022-09-09T02:49:02;94640.56;;;32.06;59.33
73332;BME280;61560;33.718;73.040;2022-09-09T02:54:29;94645.81;;;32.31;59.39
73332;BME280;61560;33.718;73.040;2022-09-09T02:57:17;94641.34;;;32.43;58.59
73332;BME280;61560;33.718;73.040;2022-09-09T02:59:49;94639.59;;;32.32;58.83
73332;BME280;61560;33.718;73.040;2022-09-09T03:02:18;94641.53;;;32.45;58.35
73332;BME280;61560;33.718;73.040;2022-09-09T03:04:49;94640.28;;;32.61;58.11
73332;BME280;61560;33.718;73.040;2022-09-09T03:07:19;94646.56;;;32.31;58.15
73332;BME280;61560;33.718;73.040;2022-09-09T03:09:47;94645.06;;;32.30;58.19
73332;BME280;61560;33.718;73.040;2022-09-09T03:12:16;94647.84;;;32.66;58.48
73332;BME280;61560;33.718;73.040;2022-09-09T03:14:43;94645.47;;;32.85;57.58
73332;BME280;61560;33.718;73.040;2022-09-09T03:17:12;94647.78;;;32.94;57.31
73332;BME280;61560;33.718;73.040;2022-09-09T03:19:45;94648.94;;;33.06;56.83
73332;BME280;61560;33.718;73.040;2022-09-09T03:22:13;94653.31;;;33.15;56.34
73332;BME280;61560;33.718;73.040;2022-09-09T03:24:41;94642.94;;;33.25;56.27
73332;BME280;61560;33.718;73.040;2022-09-09T03:27:08;94646.72;;;33.35;55.41
73332;BME280;61560;33.718;73.040;2022-09-09T03:29:37;94644.16;;;32.86;56.73
73332;BME280;61560;33.718;73.040;2022-09-09T03:32:07;94642.69;;;33.00;56.65
73332;BME280;61560;33.718;73.040;2022-09-09T03:34:37;94640.47;;;33.36;56.42
73332;BME280;61560;33.718;73.040;2022-09-09T03:37:09;94645.03;;;33.69;55.18
73332;BME280;61560;33.718;73.040;2022-09-09T03:39:39;94648.81;;;33.95;54.12
73332;BME280;61560;33.718;73.040;2022-09-09T03:42:07;94644.59;;;34.18;53.58
73332;BME280;61560;33.718;73.040;2022-09-09T03:44:34;94643.13;;;34.02;53.11
73332;BME280;61560;33.718;73.040;2022-09-09T03:47:00;94643.31;;;34.04;52.84
73332;BME280;61560;33.718;73.040;2022-09-09T03:49:30;94640.25;;;34.72;51.45
73332;BME280;61560;33.718;73.040;2022-09-09T03:51:57;94642.78;;;35.57;49.69
73332;BME280;61560;33.718;73.040;2022-09-09T03:54:25;94641.53;;;36.95;46.36
73332;BME280;61560;33.718;73.040;2022-09-09T03:56:53;94640.75;;;37.74;44.17
73332;BME280;61560;33.718;73.040;2022-09-09T03:59:22;94645.25;;;38.23;43.23
73332;BME280;61560;33.718;73.040;2022-09-09T05:02:43;94632.81;;;44.86;29.97
73332;BME280;61560;33.718;73.040;2022-09-09T05:05:12;94633.75;;;44.90;29.77
73332;BME280;61560;33.718;73.040;2022-09-09T05:07:41;94635.81;;;44.88;30.20
73332;BME280;61560;33.718;73.040;2022-09-09T05:10:08;94637.91;;;45.01;29.77
73332;BME280;61560;33.718;73.040;2022-09-09T05:12:36;94628.56;;;45.16;29.66
73332;BME280;61560;33.718;73.040;2022-09-09T05:15:04;94630.44;;;45.25;29.38
73332;BME280;61560;33.718;73.040;2022-09-09T05:17:31;94623.50;;;45.16;29.41
73332;BME280;61560;33.718;73.040;2022-09-09T05:19:59;94626.50;;;45.18;28.90
73332;BME280;61560;33.718;73.040;2022-09-09T05:22:26;94622.41;;;45.23;28.39
73332;BME280;61560;33.718;73.040;2022-09-09T05:24:53;94620.19;;;45.37;27.93
73332;BME280;61560;33.718;73.040;2022-09-09T05:27:20;94621.44;;;45.48;27.83
73332;BME280;61560;33.718;73.040;2022-09-09T05:29:48;94612.31;;;45.24;28.27
73332;BME280;61560;33.718;73.040;2022-09-09T05:32:14;94619.34;;;45.06;29.00
73332;BME280;61560;33.718;73.040;2022-09-09T05:34:45;94612.66;;;44.88;29.70
73332;BME280;61560;33.718;73.040;2022-09-09T05:37:13;94608.72;;;44.81;29.84
73332;BME280;61560;33.718;73.040;2022-09-09T05:39:39;94615.81;;;44.78;28.66
73332;BME280;61560;33.718;73.040;2022-09-09T05:42:07;94615.63;;;44.60;28.53
73332;BME280;61560;33.718;73.040;2022-09-09T05:44:34;94613.31;;;44.43;28.89
73332;BME280;61560;33.718;73.040;2022-09-09T05:47:01;94614.81;;;44.17;29.23
73332;BME280;61560;33.718;73.040;2022-09-09T05:49:28;94607.41;;;43.73;30.34
73332;BME280;61560;33.718;73.040;2022-09-09T05:51:55;94599.84;;;43.16;31.08
73332;BME280;61560;33.718;73.040;2022-09-09T05:54:22;94603.09;;;42.60;32.29
73332;BME280;61560;33.718;73.040;2022-09-09T05:56:51;94595.31;;;42.14;32.90
73332;BME280;61560;33.718;73.040;2022-09-09T05:59:19;94600.25;;;41.77;33.47
73332;BME280;61560;33.718;73.040;2022-09-09T06:01:46;94597.22;;;41.52;34.54
73332;BME280;61560;33.718;73.040;2022-09-09T06:04:33;94592.38;;;41.10;34.58
73332;BME280;61560;33.718;73.040;2022-09-09T06:07:01;94592.88;;;40.74;35.68
73332;BME280;61560;33.718;73.040;2022-09-09T06:09:27;94596.94;;;40.59;35.79
73332;BME280;61560;33.718;73.040;2022-09-09T06:11:56;94580.22;;;40.35;35.51
73332;BME280;61560;33.718;73.040;2022-09-09T06:14:25;94586.63;;;40.24;36.28
73332;BME280;61560;33.718;73.040;2022-09-09T06:16:55;94576.13;;;40.17;36.48
73332;BME280;61560;33.718;73.040;2022-09-09T06:19:27;94576.25;;;39.97;35.92
73332;BME280;61560;33.718;73.040;2022-09-09T06:21:57;94573.25;;;39.65;35.79
73332;BME280;61560;33.718;73.040;2022-09-09T06:24:26;94572.41;;;39.12;37.26
73332;BME280;61560;33.718;73.040;2022-09-09T06:26:53;94567.88;;;39.09;37.64
73332;BME280;61560;33.718;73.040;2022-09-09T06:29:26;94560.63;;;39.18;37.86
73332;BME280;61560;33.718;73.040;2022-09-09T06:31:54;94558.38;;;39.16;37.67
73332;BME280;61560;33.718;73.040;2022-09-09T06:34:23;94556.13;;;39.05;37.44
73332;BME280;61560;33.718;73.040;2022-09-09T06:36:53;94554.63;;;39.14;37.92
73332;BME280;61560;33.718;73.040;2022-09-09T06:39:20;94556.81;;;39.25;37.66
73332;BME280;61560;33.718;73.040;2022-09-09T06:41:47;94549.53;;;39.34;36.69
73332;BME280;61560;33.718;73.040;2022-09-09T06:44:43;94545.75;;;39.41;36.82
73332;BME280;61560;33.718;73.040;2022-09-09T06:47:16;94544.38;;;39.42;37.01
73332;BME280;61560;33.718;73.040;2022-09-09T06:49:42;94545.34;;;39.35;37.23
73332;BME280;61560;33.718;73.040;2022-09-09T06:52:10;94542.91;;;39.31;37.27
73332;BME280;61560;33.718;73.040;2022-09-09T06:54:37;94537.38;;;39.23;36.32
73332;BME280;61560;33.718;73.040;2022-09-09T06:57:05;94533.19;;;39.15;37.25
73332;BME280;61560;33.718;73.040;2022-09-09T06:59:34;94529.56;;;39.14;37.99
73332;BME280;61560;33.718;73.040;2022-09-09T07:02:00;94522.44;;;39.25;36.90
73332;BME280;61560;33.718;73.040;2022-09-09T07:04:28;94522.16;;;39.21;36.00
73332;BME280;61560;33.718;73.040;2022-09-09T07:06:55;94514.03;;;39.17;35.69
73332;BME280;61560;33.718;73.040;2022-09-09T07:09:25;94513.28;;;39.07;35.69
73332;BME280;61560;33.718;73.040;2022-09-09T07:11:53;94503.38;;;38.99;36.46
73332;BME280;61560;33.718;73.040;2022-09-09T07:14:22;94508.91;;;39.06;36.46
73332;BME280;61560;33.718;73.040;2022-09-09T07:16:58;94501.16;;;39.28;36.09
73332;BME280;61560;33.718;73.040;2022-09-09T07:19:30;94498.28;;;39.28;35.56
73332;BME280;61560;33.718;73.040;2022-09-09T07:22:06;94499.38;;;39.23;35.41
73332;BME280;61560;33.718;73.040;2022-09-09T07:24:37;94490.97;;;39.15;35.94
73332;BME280;61560;33.718;73.040;2022-09-09T07:27:08;94490.69;;;39.11;36.11
73332;BME280;61560;33.718;73.040;2022-09-09T07:29:38;94485.72;;;39.12;35.56
73332;BME280;61560;33.718;73.040;2022-09-09T07:32:04;94490.56;;;39.00;35.00
73332;BME280;61560;33.718;73.040;2022-09-09T07:34:36;94478.22;;;38.88;35.23
73332;BME280;61560;33.718;73.040;2022-09-09T07:37:03;94469.63;;;38.88;35.20
73332;BME280;61560;33.718;73.040;2022-09-09T07:39:30;94472.97;;;38.84;35.98
73332;BME280;61560;33.718;73.040;2022-09-09T07:41:57;94473.53;;;38.92;35.65
73332;BME280;61560;33.718;73.040;2022-09-09T07:44:27;94462.56;;;38.89;36.89
73332;BME280;61560;33.718;73.040;2022-09-09T07:47:01;94460.47;;;38.80;36.82
73332;BME280;61560;33.718;73.040;2022-09-09T07:49:34;94458.97;;;38.79;36.97
73332;BME280;61560;33.718;73.040;2022-09-09T07:52:03;94461.56;;;38.75;37.80
73332;BME280;61560;33.718;73.040;2022-09-09T07:54:30;94459.75;;;38.70;37.00
73332;BME280;61560;33.718;73.040;2022-09-09T07:56:59;94455.69;;;38.63;37.75
73332;BME280;61560;33.718;73.040;2022-09-09T07:59:29;94441.22;;;38.61;37.43
73332;BME280;61560;33.718;73.040;2022-09-09T09:11:36;94302.47;;;37.34;40.27
73332;BME280;61560;33.718;73.040;2022-09-09T09:14:12;94304.44;;;37.31;40.11
73332;BME280;61560;33.718;73.040;2022-09-09T09:16:52;94308.63;;;37.30;40.81
73332;BME280;61560;33.718;73.040;2022-09-09T09:19:22;94308.78;;;37.23;39.47
73332;BME280;61560;33.718;73.040;2022-09-09T09:24:41;94280.22;;;37.32;38.72
73332;BME280;61560;33.718;73.040;2022-09-09T09:27:18;94287.63;;;37.35;39.07
73332;BME280;61560;33.718;73.040;2022-09-09T09:29:51;94284.44;;;37.31;38.72
73332;BME280;61560;33.718;73.040;2022-09-09T09:32:25;94286.69;;;37.23;38.60
73332;BME280;61560;33.718;73.040;2022-09-09T09:34:56;94280.53;;;37.17;38.89
73332;BME280;61560;33.718;73.040;2022-09-09T09:37:32;94279.94;;;37.19;38.40
73332;BME280;61560;33.718;73.040;2022-09-09T09:40:17;94274.97;;;37.19;39.05
73332;BME280;61560;33.718;73.040;2022-09-09T09:43:16;94267.59;;;37.16;39.59
73332;BME280;61560;33.718;73.040;2022-09-09T09:45:51;94263.53;;;37.00;39.12
73332;BME280;61560;33.718;73.040;2022-09-09T09:48:20;94252.28;;;36.92;39.55
73332;BME280;61560;33.718;73.040;2022-09-09T09:51:01;94256.47;;;37.01;39.97
73332;BME280;61560;33.718;73.040;2022-09-09T09:53:37;94254.53;;;37.04;39.95
73332;BME280;61560;33.718;73.040;2022-09-09T09:56:08;94250.03;;;37.01;39.81
73332;BME280;61560;33.718;73.040;2022-09-09T09:58:54;94247.31;;;36.93;39.19
73332;BME280;61560;33.718;73.040;2022-09-09T10:01:29;94230.91;;;36.84;39.63
73332;BME280;61560;33.718;73.040;2022-09-09T10:04:17;94234.53;;;36.84;40.45
73332;BME280;61560;33.718;73.040;2022-09-09T10:06:45;94237.66;;;36.79;40.63
73332;BME280;61560;33.718;73.040;2022-09-09T10:09:31;94231.94;;;36.79;40.99
73332;BME280;61560;33.718;73.040;2022-09-09T10:15:26;94235.09;;;36.73;40.35
73332;BME280;61560;33.718;73.040;2022-09-09T10:23:56;94226.69;;;36.75;39.61
73332;BME280;61560;33.718;73.040;2022-09-09T10:32:51;94219.31;;;36.72;39.19
73332;BME280;61560;33.718;73.040;2022-09-09T10:35:45;94215.72;;;36.72;40.00
73332;BME280;61560;33.718;73.040;2022-09-09T10:43:45;94222.59;;;36.50;40.58
73332;BME280;61560;33.718;73.040;2022-09-09T10:59:48;94204.13;;;36.41;40.71
73332;BME280;61560;33.718;73.040;2022-09-09T11:02:38;94202.31;;;36.46;40.39
73332;BME280;61560;33.718;73.040;2022-09-09T11:07:59;94198.81;;;36.38;41.03
73332;BME280;61560;33.718;73.040;2022-09-09T11:10:41;94201.69;;;36.28;41.49
73332;BME280;61560;33.718;73.040;2022-09-09T11:13:17;94202.41;;;36.19;41.45
73332;BME280;61560;33.718;73.040;2022-09-09T11:19:04;94206.00;;;36.10;41.26
73332;BME280;61560;33.718;73.040;2022-09-09T11:21:45;94206.44;;;36.06;41.71
73332;BME280;61560;33.718;73.040;2022-09-09T11:24:29;94202.38;;;36.09;41.54
73332;BME280;61560;33.718;73.040;2022-09-09T11:35:45;94190.81;;;35.98;42.11
73332;BME280;61560;33.718;73.040;2022-09-09T11:41:04;94195.25;;;35.91;42.65
73332;BME280;61560;33.718;73.040;2022-09-09T11:43:43;94187.16;;;35.88;42.77
73332;BME280;61560;33.718;73.040;2022-09-09T11:46:14;94194.47;;;35.81;43.04
73332;BME280;61560;33.718;73.040;2022-09-09T11:48:44;94192.03;;;35.78;43.37
73332;BME280;61560;33.718;73.040;2022-09-09T11:53:53;94202.78;;;35.60;43.34
73332;BME280;61560;33.718;73.040;2022-09-09T11:56:41;94197.03;;;35.51;43.22
73332;BME280;61560;33.718;73.040;2022-09-09T11:59:30;94192.31;;;35.46;43.59
73332;BME280;61560;33.718;73.040;2022-09-09T13:01:40;94198.34;;;33.46;51.41
73332;BME280;61560;33.718;73.040;2022-09-09T13:04:22;94204.09;;;33.39;51.32
73332;BME280;61560;33.718;73.040;2022-09-09T13:06:49;94201.84;;;33.37;51.58
73332;BME280;61560;33.718;73.040;2022-09-09T13:09:18;94201.84;;;33.37;51.80
73332;BME280;61560;33.718;73.040;2022-09-09T13:11:54;94201.50;;;33.33;51.96
73332;BME280;61560;33.718;73.040;2022-09-09T13:14:30;94208.13;;;33.28;52.51
73332;BME280;61560;33.718;73.040;2022-09-09T13:17:00;94209.31;;;33.25;52.79
73332;BME280;61560;33.718;73.040;2022-09-09T13:19:30;94208.91;;;33.21;53.34
73332;BME280;61560;33.718;73.040;2022-09-09T13:21:58;94215.34;;;33.22;53.24
73332;BME280;61560;33.718;73.040;2022-09-09T13:24:34;94210.13;;;33.11;52.92
73332;BME280;61560;33.718;73.040;2022-09-09T13:29:57;94207.31;;;33.03;52.23
73332;BME280;61560;33.718;73.040;2022-09-09T13:32:25;94207.34;;;32.95;52.69
73332;BME280;61560;33.718;73.040;2022-09-09T13:34:58;94207.16;;;32.93;51.93
73332;BME280;61560;33.718;73.040;2022-09-09T13:37:38;94200.38;;;32.89;52.45
73332;BME280;61560;33.718;73.040;2022-09-09T13:40:17;94208.34;;;32.83;51.78
